Aérodrome :
LOGIN :

S'inscrire | Disclaimer

   EN    FR    IT 

 










Légende :    VFR   VFR Marginal   IFR   IFR Intensif   IFR Très Intensif
Visi : 
Plafond : 
>= 8 km
>= 3000ft
5 à 8 km
1000 à 3000 ft
1500m à 5 km
500 à 1000 ft
800 à 1500m
200 à 500 ft
< 800m
< 200 ft
Symboles :   Orages  Brouillard  Fortes neiges  Fortes précipitations  Vent > 20 kt
SIGMETs :   Divers  Orages  Givrage  Turbulence  Onde Orograph.  Cendres Volcan.






- Altitude de l'aérodrome : 1273 ft
- Code IATA : LJU


LJLJ - Ljubljana

DERNIER METAR :
  • 231930Z 35003KT 300V030 7000 SHRA VCTS FEW023CB SCT027 BKN037 09/08 Q0998 NOSIG

METARs EXPIRÉS :
  • 231900Z VRB02KT 7000 SHRA FEW010 BKN033TCU OVC045 08/07 Q0998 NOSIG
  • 231830Z 31007KT 280V340 8000 SHRA FEW010 BKN033 OVC045 08/07 Q0997 NOSIG
  • 231800Z 15004KT 120V190 9999 -RA FEW010 BKN035 OVC043 10/06 Q0997 NOSIG
  • 231730Z 13005KT 100V160 9999 -RA FEW010 BKN035 BKN045 10/06 Q0997 NOSIG
  • 231700Z 11007KT 9999 -RA FEW010 SCT035 BKN045 09/06 Q0997 NOSIG
  • 231630Z 09009KT 9999 -RA FEW007 SCT035 BKN045 09/06 Q0997 NOSIG
  • 231600Z 09007KT 9999 -RA FEW007 BKN030 BKN043 09/06 Q0997 NOSIG
  • 231530Z 08007KT 060V130 9999 -RA FEW007 BKN028 OVC043 08/06 Q0998 NOSIG

TAF AMD TAF LJLJ
Valide du 23 à 19h jusqu'au 24 à 18h UTC


231905Z 2319/2418 10007KT 9999 -RA FEW007 BKN030
TEMPO 2319/2403 SHRA SCT020TCU OVC025
PROB30
TEMPO 2319/2322 SHRA FEW010 BKN030CB OVC045
BECMG 2320/2322 NSW



MET'MAP, la Météo Aéronautique d'un coup d'oeil ! - Copyright ORBIFLY Décembre 2007 - Disclaimer

ORBIFLY MET'MAP TEAM :

Programmation & Développement : Alexandra Zaïnal
Sur une idée originale de : Baudouin d'Aumeries
Soutien technique & logistique : Manuel Goepfert
Assistance : Marc-Olivier Méhu




SOURCES & CREDITS :

   NOAA